sensor_id;sensor_type;location;lat;lon;timestamp;pressure;altitude;pressure_sealevel;temperature;humidity
22743;BME280;11538;48.884;8.696;2024-03-23T00:52:44;97994.69;;;9.80;100.00
22743;BME280;11538;48.884;8.696;2024-03-23T00:55:11;97983.38;;;9.78;100.00
22743;BME280;11538;48.884;8.696;2024-03-23T00:57:37;97990.72;;;9.87;100.00
22743;BME280;11538;48.884;8.696;2024-03-23T01:00:06;97990.25;;;9.93;100.00
22743;BME280;11538;48.884;8.696;2024-03-23T01:02:33;97976.84;;;9.79;100.00
22743;BME280;11538;48.884;8.696;2024-03-23T01:04:59;97979.69;;;9.74;100.00
22743;BME280;11538;48.884;8.696;2024-03-23T01:07:25;97983.53;;;9.73;100.00
22743;BME280;11538;48.884;8.696;2024-03-23T01:09:50;97966.16;;;9.74;100.00
22743;BME280;11538;48.884;8.696;2024-03-23T01:12:17;97965.84;;;9.76;100.00
22743;BME280;11538;48.884;8.696;2024-03-23T01:14:44;97967.63;;;9.80;100.00
22743;BME280;11538;48.884;8.696;2024-03-23T01:17:10;97963.00;;;9.90;100.00
22743;BME280;11538;48.884;8.696;2024-03-23T01:19:36;97954.75;;;9.95;100.00
22743;BME280;11538;48.884;8.696;2024-03-23T01:22:02;97960.78;;;9.92;100.00
22743;BME280;11538;48.884;8.696;2024-03-23T01:24:28;97966.03;;;9.88;100.00
22743;BME280;11538;48.884;8.696;2024-03-23T01:26:54;97951.22;;;9.86;100.00
22743;BME280;11538;48.884;8.696;2024-03-23T01:29:20;97949.28;;;9.77;100.00
22743;BME280;11538;48.884;8.696;2024-03-23T01:31:46;97942.75;;;9.78;100.00
22743;BME280;11538;48.884;8.696;2024-03-23T01:34:12;97941.50;;;9.85;100.00
22743;BME280;11538;48.884;8.696;2024-03-23T01:36:38;97937.03;;;9.89;100.00
22743;BME280;11538;48.884;8.696;2024-03-23T01:39:04;97920.59;;;9.85;100.00
22743;BME280;11538;48.884;8.696;2024-03-23T01:41:30;97927.63;;;9.77;100.00
22743;BME280;11538;48.884;8.696;2024-03-23T01:43:56;97920.13;;;9.74;100.00
22743;BME280;11538;48.884;8.696;2024-03-23T01:46:22;97920.59;;;9.76;100.00
22743;BME280;11538;48.884;8.696;2024-03-23T01:48:49;97913.25;;;9.77;100.00
22743;BME280;11538;48.884;8.696;2024-03-23T01:51:16;97920.13;;;9.74;100.00
22743;BME280;11538;48.884;8.696;2024-03-23T01:53:42;97909.44;;;9.69;100.00
22743;BME280;11538;48.884;8.696;2024-03-23T01:56:08;97912.16;;;9.69;100.00
22743;BME280;11538;48.884;8.696;2024-03-23T01:58:34;97903.53;;;9.67;100.00
22743;BME280;11538;48.884;8.696;2024-03-23T02:01:00;97914.81;;;9.60;100.00
22743;BME280;11538;48.884;8.696;2024-03-23T02:03:27;97914.03;;;9.60;100.00
22743;BME280;11538;48.884;8.696;2024-03-23T02:05:54;97902.41;;;9.59;100.00
22743;BME280;11538;48.884;8.696;2024-03-23T02:08:23;97894.13;;;9.56;100.00
22743;BME280;11538;48.884;8.696;2024-03-23T02:10:50;97908.00;;;9.63;100.00
22743;BME280;11538;48.884;8.696;2024-03-23T02:13:18;97896.34;;;9.62;100.00
22743;BME280;11538;48.884;8.696;2024-03-23T02:15:45;97897.03;;;9.68;100.00
22743;BME280;11538;48.884;8.696;2024-03-23T02:18:11;97904.50;;;9.71;100.00
22743;BME280;11538;48.884;8.696;2024-03-23T02:20:37;97889.84;;;9.72;100.00
22743;BME280;11538;48.884;8.696;2024-03-23T02:23:05;97895.56;;;9.62;100.00
22743;BME280;11538;48.884;8.696;2024-03-23T02:25:34;97880.59;;;9.56;100.00
22743;BME280;11538;48.884;8.696;2024-03-23T02:28:00;97893.31;;;9.55;100.00
22743;BME280;11538;48.884;8.696;2024-03-23T02:30:26;97888.56;;;9.61;100.00
22743;BME280;11538;48.884;8.696;2024-03-23T02:32:52;97870.25;;;9.66;100.00
22743;BME280;11538;48.884;8.696;2024-03-23T02:35:18;97875.50;;;9.72;100.00
22743;BME280;11538;48.884;8.696;2024-03-23T02:37:46;97875.69;;;9.84;100.00
22743;BME280;11538;48.884;8.696;2024-03-23T02:40:15;97875.41;;;9.94;100.00
22743;BME280;11538;48.884;8.696;2024-03-23T02:42:41;97868.69;;;9.92;100.00
22743;BME280;11538;48.884;8.696;2024-03-23T02:45:07;97859.28;;;9.98;100.00
22743;BME280;11538;48.884;8.696;2024-03-23T02:47:34;97868.38;;;10.02;100.00
22743;BME280;11538;48.884;8.696;2024-03-23T02:49:59;97864.72;;;9.98;100.00
22743;BME280;11538;48.884;8.696;2024-03-23T02:52:25;97845.44;;;10.00;100.00
22743;BME280;11538;48.884;8.696;2024-03-23T02:54:51;97845.59;;;10.03;100.00
22743;BME280;11538;48.884;8.696;2024-03-23T02:57:17;97849.09;;;10.04;100.00
22743;BME280;11538;48.884;8.696;2024-03-23T02:59:43;97856.09;;;10.22;100.00
22743;BME280;11538;48.884;8.696;2024-03-23T03:02:11;97852.72;;;10.34;100.00
22743;BME280;11538;48.884;8.696;2024-03-23T03:04:37;97848.59;;;10.37;100.00
22743;BME280;11538;48.884;8.696;2024-03-23T03:07:03;97851.16;;;10.42;100.00
22743;BME280;11538;48.884;8.696;2024-03-23T03:09:29;97837.75;;;10.46;100.00
22743;BME280;11538;48.884;8.696;2024-03-23T03:11:55;97837.44;;;10.30;100.00
22743;BME280;11538;48.884;8.696;2024-03-23T03:14:21;97849.25;;;10.25;100.00
22743;BME280;11538;48.884;8.696;2024-03-23T03:16:48;97852.75;;;10.26;100.00
22743;BME280;11538;48.884;8.696;2024-03-23T03:19:14;97861.19;;;10.33;100.00
22743;BME280;11538;48.884;8.696;2024-03-23T03:21:39;97850.06;;;10.43;100.00
22743;BME280;11538;48.884;8.696;2024-03-23T03:24:06;97839.97;;;10.52;100.00
22743;BME280;11538;48.884;8.696;2024-03-23T03:26:32;97837.41;;;10.56;100.00
22743;BME280;11538;48.884;8.696;2024-03-23T03:28:58;97819.88;;;10.53;100.00
22743;BME280;11538;48.884;8.696;2024-03-23T03:31:24;97808.56;;;10.51;100.00
22743;BME280;11538;48.884;8.696;2024-03-23T03:33:50;97810.66;;;10.46;100.00
22743;BME280;11538;48.884;8.696;2024-03-23T03:36:17;97823.09;;;10.47;100.00
22743;BME280;11538;48.884;8.696;2024-03-23T03:38:43;97809.34;;;10.52;100.00
22743;BME280;11538;48.884;8.696;2024-03-23T03:41:09;97809.22;;;10.39;100.00
22743;BME280;11538;48.884;8.696;2024-03-23T03:43:35;97801.56;;;10.24;100.00
22743;BME280;11538;48.884;8.696;2024-03-23T03:46:02;97816.25;;;10.23;100.00
22743;BME280;11538;48.884;8.696;2024-03-23T03:48:28;97814.16;;;10.46;100.00
22743;BME280;11538;48.884;8.696;2024-03-23T03:50:54;97811.78;;;10.92;100.00
22743;BME280;11538;48.884;8.696;2024-03-23T03:53:21;97817.03;;;11.27;100.00
22743;BME280;11538;48.884;8.696;2024-03-23T03:55:47;97833.97;;;11.54;100.00
22743;BME280;11538;48.884;8.696;2024-03-23T03:58:13;97842.66;;;11.69;100.00
22743;BME280;11538;48.884;8.696;2024-03-23T04:00:39;97846.09;;;11.78;100.00
22743;BME280;11538;48.884;8.696;2024-03-23T04:03:06;97858.09;;;11.77;100.00
22743;BME280;11538;48.884;8.696;2024-03-23T04:05:32;97853.19;;;11.70;100.00
22743;BME280;11538;48.884;8.696;2024-03-23T04:07:58;97851.94;;;11.68;100.00
22743;BME280;11538;48.884;8.696;2024-03-23T04:10:24;97861.53;;;11.65;100.00
22743;BME280;11538;48.884;8.696;2024-03-23T04:12:50;97863.78;;;11.63;100.00
22743;BME280;11538;48.884;8.696;2024-03-23T04:15:16;97864.56;;;11.64;100.00
22743;BME280;11538;48.884;8.696;2024-03-23T04:17:42;97875.31;;;11.60;100.00
22743;BME280;11538;48.884;8.696;2024-03-23T04:20:09;97860.47;;;11.58;100.00
22743;BME280;11538;48.884;8.696;2024-03-23T04:22:37;97836.47;;;11.60;100.00
22743;BME280;11538;48.884;8.696;2024-03-23T04:25:04;97845.44;;;11.60;100.00
22743;BME280;11538;48.884;8.696;2024-03-23T04:27:33;97839.53;;;11.58;100.00
22743;BME280;11538;48.884;8.696;2024-03-23T04:29:59;97847.22;;;11.56;100.00
22743;BME280;11538;48.884;8.696;2024-03-23T04:32:30;97836.00;;;11.58;100.00
22743;BME280;11538;48.884;8.696;2024-03-23T04:34:56;97846.09;;;11.57;100.00
22743;BME280;11538;48.884;8.696;2024-03-23T04:37:22;97857.75;;;11.58;100.00
22743;BME280;11538;48.884;8.696;2024-03-23T04:39:48;97868.94;;;11.56;100.00
22743;BME280;11538;48.884;8.696;2024-03-23T04:42:15;97858.75;;;11.53;100.00
22743;BME280;11538;48.884;8.696;2024-03-23T04:44:42;97860.56;;;11.40;100.00
22743;BME280;11538;48.884;8.696;2024-03-23T04:47:08;97844.00;;;11.33;100.00
22743;BME280;11538;48.884;8.696;2024-03-23T04:49:34;97845.47;;;11.30;100.00
22743;BME280;11538;48.884;8.696;2024-03-23T04:52:05;97842.41;;;11.32;100.00
22743;BME280;11538;48.884;8.696;2024-03-23T04:54:31;97849.28;;;11.29;100.00
22743;BME280;11538;48.884;8.696;2024-03-23T04:57:00;97856.97;;;11.27;100.00
22743;BME280;11538;48.884;8.696;2024-03-23T04:59:26;97859.06;;;11.21;100.00
22743;BME280;11538;48.884;8.696;2024-03-23T05:01:52;97875.66;;;11.20;100.00
22743;BME280;11538;48.884;8.696;2024-03-23T05:04:18;97869.75;;;11.18;100.00
22743;BME280;11538;48.884;8.696;2024-03-23T05:06:44;97876.00;;;11.18;100.00
22743;BME280;11538;48.884;8.696;2024-03-23T05:09:10;97872.81;;;11.16;100.00
22743;BME280;11538;48.884;8.696;2024-03-23T05:11:41;97885.09;;;11.14;100.00
22743;BME280;11538;48.884;8.696;2024-03-23T05:14:12;97889.28;;;11.11;100.00
22743;BME280;11538;48.884;8.696;2024-03-23T05:16:41;97896.94;;;11.09;100.00
22743;BME280;11538;48.884;8.696;2024-03-23T05:19:07;97905.44;;;10.99;100.00
22743;BME280;11538;48.884;8.696;2024-03-23T05:21:33;97905.97;;;10.83;100.00
22743;BME280;11538;48.884;8.696;2024-03-23T05:23:59;97895.94;;;10.75;100.00
22743;BME280;11538;48.884;8.696;2024-03-23T05:26:25;97901.69;;;10.64;100.00
22743;BME280;11538;48.884;8.696;2024-03-23T05:28:51;97896.41;;;10.59;100.00
22743;BME280;11538;48.884;8.696;2024-03-23T05:31:28;97896.41;;;10.59;100.00
22743;BME280;11538;48.884;8.696;2024-03-23T05:33:54;97883.50;;;10.56;100.00
22743;BME280;11538;48.884;8.696;2024-03-23T05:36:21;97898.81;;;10.52;100.00
22743;BME280;11538;48.884;8.696;2024-03-23T05:38:47;97910.63;;;10.56;100.00
22743;BME280;11538;48.884;8.696;2024-03-23T05:41:14;97923.41;;;10.56;100.00
22743;BME280;11538;48.884;8.696;2024-03-23T05:43:40;97920.50;;;10.52;100.00
22743;BME280;11538;48.884;8.696;2024-03-23T05:46:06;97946.19;;;10.46;100.00
22743;BME280;11538;48.884;8.696;2024-03-23T05:48:33;97964.22;;;10.42;100.00
22743;BME280;11538;48.884;8.696;2024-03-23T05:50:59;97959.25;;;10.35;100.00
22743;BME280;11538;48.884;8.696;2024-03-23T05:53:26;97941.22;;;10.30;100.00
22743;BME280;11538;48.884;8.696;2024-03-23T05:56:01;97949.50;;;10.25;100.00
22743;BME280;11538;48.884;8.696;2024-03-23T05:58:29;97937.38;;;10.14;100.00
22743;BME280;11538;48.884;8.696;2024-03-23T06:01:00;97936.44;;;10.09;100.00
22743;BME280;11538;48.884;8.696;2024-03-23T06:03:28;97950.47;;;10.12;100.00
22743;BME280;11538;48.884;8.696;2024-03-23T06:05:54;97959.84;;;10.05;100.00
22743;BME280;11538;48.884;8.696;2024-03-23T06:08:20;97971.34;;;10.11;100.00
22743;BME280;11538;48.884;8.696;2024-03-23T06:10:47;97987.28;;;10.04;100.00
22743;BME280;11538;48.884;8.696;2024-03-23T06:13:13;97991.38;;;9.92;100.00
22743;BME280;11538;48.884;8.696;2024-03-23T06:15:40;98005.38;;;9.86;100.00
22743;BME280;11538;48.884;8.696;2024-03-23T06:18:06;98014.34;;;9.95;100.00
22743;BME280;11538;48.884;8.696;2024-03-23T06:20:34;98010.31;;;9.84;100.00
22743;BME280;11538;48.884;8.696;2024-03-23T06:23:01;98019.56;;;9.91;100.00
22743;BME280;11538;48.884;8.696;2024-03-23T06:25:28;98011.94;;;9.93;100.00
22743;BME280;11538;48.884;8.696;2024-03-23T06:27:54;98015.44;;;9.94;100.00
22743;BME280;11538;48.884;8.696;2024-03-23T06:30:20;98017.19;;;9.90;100.00
22743;BME280;11538;48.884;8.696;2024-03-23T06:32:46;98029.66;;;10.00;100.00
22743;BME280;11538;48.884;8.696;2024-03-23T06:35:12;98036.81;;;9.95;100.00
22743;BME280;11538;48.884;8.696;2024-03-23T06:37:38;98052.41;;;9.90;100.00
22743;BME280;11538;48.884;8.696;2024-03-23T06:40:08;98049.16;;;9.79;100.00
22743;BME280;11538;48.884;8.696;2024-03-23T06:42:36;98053.59;;;9.75;100.00
22743;BME280;11538;48.884;8.696;2024-03-23T06:45:03;98050.13;;;9.74;100.00
22743;BME280;11538;48.884;8.696;2024-03-23T06:47:31;98061.59;;;9.80;100.00
22743;BME280;11538;48.884;8.696;2024-03-23T06:49:58;98071.16;;;9.77;100.00
22743;BME280;11538;48.884;8.696;2024-03-23T06:52:24;98091.84;;;9.73;100.00
22743;BME280;11538;48.884;8.696;2024-03-23T06:54:50;98090.53;;;9.71;100.00
22743;BME280;11538;48.884;8.696;2024-03-23T06:57:16;98105.69;;;9.72;100.00
22743;BME280;11538;48.884;8.696;2024-03-23T06:59:42;98109.13;;;9.63;100.00
22743;BME280;11538;48.884;8.696;2024-03-23T07:02:09;98102.25;;;9.57;100.00
22743;BME280;11538;48.884;8.696;2024-03-23T07:04:36;98108.16;;;9.59;100.00
22743;BME280;11538;48.884;8.696;2024-03-23T07:07:02;98114.69;;;9.58;100.00
22743;BME280;11538;48.884;8.696;2024-03-23T07:09:29;98119.00;;;9.59;100.00
22743;BME280;11538;48.884;8.696;2024-03-23T07:11:58;98116.78;;;9.61;100.00
22743;BME280;11538;48.884;8.696;2024-03-23T07:14:24;98119.19;;;9.63;100.00
22743;BME280;11538;48.884;8.696;2024-03-23T07:16:51;98122.38;;;9.65;100.00
22743;BME280;11538;48.884;8.696;2024-03-23T07:19:17;98115.50;;;9.59;100.00
22743;BME280;11538;48.884;8.696;2024-03-23T07:21:45;98114.19;;;9.56;100.00
22743;BME280;11538;48.884;8.696;2024-03-23T07:24:12;98104.94;;;9.48;100.00
22743;BME280;11538;48.884;8.696;2024-03-23T07:26:38;98112.91;;;9.54;100.00
22743;BME280;11538;48.884;8.696;2024-03-23T07:29:06;98118.81;;;9.56;100.00
22743;BME280;11538;48.884;8.696;2024-03-23T07:31:32;98139.53;;;9.60;100.00
22743;BME280;11538;48.884;8.696;2024-03-23T07:33:58;98157.09;;;9.63;100.00
22743;BME280;11538;48.884;8.696;2024-03-23T07:36:24;98152.72;;;9.53;100.00
22743;BME280;11538;48.884;8.696;2024-03-23T07:38:50;98180.47;;;9.59;100.00
22743;BME280;11538;48.884;8.696;2024-03-23T07:41:20;98185.81;;;9.50;100.00
22743;BME280;11538;48.884;8.696;2024-03-23T07:43:48;98194.50;;;9.38;100.00
22743;BME280;11538;48.884;8.696;2024-03-23T07:46:15;98197.69;;;9.40;100.00
22743;BME280;11538;48.884;8.696;2024-03-23T07:48:42;98196.97;;;9.48;100.00
22743;BME280;11538;48.884;8.696;2024-03-23T07:51:11;98221.59;;;9.61;100.00
22743;BME280;11538;48.884;8.696;2024-03-23T07:53:38;98216.53;;;9.68;100.00
22743;BME280;11538;48.884;8.696;2024-03-23T07:56:08;98217.16;;;9.65;100.00
22743;BME280;11538;48.884;8.696;2024-03-23T07:58:36;98221.47;;;9.66;100.00
22743;BME280;11538;48.884;8.696;2024-03-23T08:01:11;98228.84;;;9.74;100.00
22743;BME280;11538;48.884;8.696;2024-03-23T08:03:39;98235.28;;;9.87;100.00
22743;BME280;11538;48.884;8.696;2024-03-23T08:06:20;98244.59;;;9.95;100.00
22743;BME280;11538;48.884;8.696;2024-03-23T08:08:51;98236.47;;;9.95;100.00
22743;BME280;11538;48.884;8.696;2024-03-23T08:11:32;98259.56;;;10.15;100.00
22743;BME280;11538;48.884;8.696;2024-03-23T08:14:00;98253.66;;;10.45;100.00
22743;BME280;11538;48.884;8.696;2024-03-23T08:16:27;98258.19;;;10.58;100.00
22743;BME280;11538;48.884;8.696;2024-03-23T08:18:54;98253.97;;;10.75;100.00
22743;BME280;11538;48.884;8.696;2024-03-23T08:21:23;98273.66;;;10.89;100.00
22743;BME280;11538;48.884;8.696;2024-03-23T08:23:51;98282.97;;;11.15;100.00
22743;BME280;11538;48.884;8.696;2024-03-23T08:26:17;98278.38;;;11.33;100.00
22743;BME280;11538;48.884;8.696;2024-03-23T08:28:46;98277.13;;;11.30;100.00
22743;BME280;11538;48.884;8.696;2024-03-23T08:31:14;98314.50;;;11.42;100.00
22743;BME280;11538;48.884;8.696;2024-03-23T08:33:41;98280.59;;;11.22;100.00
22743;BME280;11538;48.884;8.696;2024-03-23T08:36:10;98298.41;;;10.96;100.00
22743;BME280;11538;48.884;8.696;2024-03-23T08:38:40;98294.25;;;10.90;100.00
22743;BME280;11538;48.884;8.696;2024-03-23T08:41:09;98294.25;;;10.99;100.00
22743;BME280;11538;48.884;8.696;2024-03-23T08:43:37;98303.03;;;10.96;97.62
22743;BME280;11538;48.884;8.696;2024-03-23T08:46:10;98294.53;;;11.29;95.29
22743;BME280;11538;48.884;8.696;2024-03-23T08:48:41;98296.31;;;11.43;93.29
22743;BME280;11538;48.884;8.696;2024-03-23T08:51:11;98312.91;;;11.59;92.27
22743;BME280;11538;48.884;8.696;2024-03-23T08:53:38;98314.69;;;11.81;89.88
22743;BME280;11538;48.884;8.696;2024-03-23T08:56:06;98318.41;;;11.94;87.21
22743;BME280;11538;48.884;8.696;2024-03-23T08:58:33;98320.00;;;12.12;88.05
22743;BME280;11538;48.884;8.696;2024-03-23T09:01:11;98322.19;;;12.46;86.49
22743;BME280;11538;48.884;8.696;2024-03-23T09:03:41;98348.34;;;12.77;84.87
22743;BME280;11538;48.884;8.696;2024-03-23T09:06:13;98337.47;;;12.77;79.62
22743;BME280;11538;48.884;8.696;2024-03-23T09:08:39;98346.63;;;12.72;78.47
22743;BME280;11538;48.884;8.696;2024-03-23T09:11:09;98342.47;;;12.57;76.73
22743;BME280;11538;48.884;8.696;2024-03-23T09:13:37;98347.88;;;12.83;75.70
22743;BME280;11538;48.884;8.696;2024-03-23T09:16:05;98341.00;;;12.68;78.27
22743;BME280;11538;48.884;8.696;2024-03-23T09:18:36;98353.25;;;13.01;76.93
22743;BME280;11538;48.884;8.696;2024-03-23T09:21:12;98345.84;;;13.10;69.93
22743;BME280;11538;48.884;8.696;2024-03-23T09:23:39;98350.28;;;12.67;69.76
22743;BME280;11538;48.884;8.696;2024-03-23T09:26:06;98343.94;;;13.02;68.87
22743;BME280;11538;48.884;8.696;2024-03-23T09:28:35;98354.19;;;13.44;70.37
22743;BME280;11538;48.884;8.696;2024-03-23T09:31:08;98345.84;;;13.40;67.66
22743;BME280;11538;48.884;8.696;2024-03-23T09:33:35;98348.63;;;13.62;69.06
22743;BME280;11538;48.884;8.696;2024-03-23T09:36:05;98355.56;;;13.80;66.63
22743;BME280;11538;48.884;8.696;2024-03-23T09:38:32;98371.75;;;13.55;65.43
22743;BME280;11538;48.884;8.696;2024-03-23T09:40:58;98368.72;;;13.78;64.37
22743;BME280;11538;48.884;8.696;2024-03-23T09:43:25;98352.41;;;13.69;59.05
22743;BME280;11538;48.884;8.696;2024-03-23T09:45:53;98358.50;;;13.96;56.97
22743;BME280;11538;48.884;8.696;2024-03-23T09:48:19;98356.19;;;14.41;54.95
22743;BME280;11538;48.884;8.696;2024-03-23T09:50:46;98355.53;;;14.77;53.99
22743;BME280;11538;48.884;8.696;2024-03-23T09:53:13;98358.72;;;14.80;53.19
22743;BME280;11538;48.884;8.696;2024-03-23T09:55:42;98351.75;;;14.48;53.46
22743;BME280;11538;48.884;8.696;2024-03-23T09:58:12;98352.03;;;14.22;54.25
22743;BME280;11538;48.884;8.696;2024-03-23T10:00:39;98363.78;;;13.71;54.93
22743;BME280;11538;48.884;8.696;2024-03-23T10:03:05;98340.31;;;13.28;57.84
22743;BME280;11538;48.884;8.696;2024-03-23T10:05:33;98341.13;;;12.81;58.30
22743;BME280;11538;48.884;8.696;2024-03-23T10:10:44;98368.31;;;12.16;67.57
22743;BME280;11538;48.884;8.696;2024-03-23T10:13:11;98393.47;;;11.72;72.74
22743;BME280;11538;48.884;8.696;2024-03-23T10:15:58;98380.44;;;11.34;80.92
22743;BME280;11538;48.884;8.696;2024-03-23T10:18:26;98404.91;;;11.02;89.05
22743;BME280;11538;48.884;8.696;2024-03-23T10:21:08;98407.63;;;10.71;85.86
22743;BME280;11538;48.884;8.696;2024-03-23T10:23:37;98448.47;;;10.37;91.52
22743;BME280;11538;48.884;8.696;2024-03-23T10:26:23;98454.94;;;9.91;100.00
22743;BME280;11538;48.884;8.696;2024-03-23T10:29:02;98455.75;;;9.49;100.00
22743;BME280;11538;48.884;8.696;2024-03-23T10:31:34;98462.53;;;9.19;100.00
22743;BME280;11538;48.884;8.696;2024-03-23T10:34:04;98443.19;;;9.12;100.00
22743;BME280;11538;48.884;8.696;2024-03-23T10:36:30;98439.47;;;9.21;100.00
22743;BME280;11538;48.884;8.696;2024-03-23T10:38:56;98429.28;;;9.32;100.00
22743;BME280;11538;48.884;8.696;2024-03-23T10:41:27;98425.25;;;9.16;100.00
22743;BME280;11538;48.884;8.696;2024-03-23T10:43:55;98414.22;;;9.12;100.00
22743;BME280;11538;48.884;8.696;2024-03-23T10:46:23;98426.31;;;9.01;100.00
22743;BME280;11538;48.884;8.696;2024-03-23T10:48:49;98425.94;;;9.07;100.00
22743;BME280;11538;48.884;8.696;2024-03-23T10:51:16;98414.63;;;9.19;100.00
22743;BME280;11538;48.884;8.696;2024-03-23T10:53:42;98405.50;;;9.57;100.00
22743;BME280;11538;48.884;8.696;2024-03-23T10:56:10;98405.94;;;10.61;100.00
22743;BME280;11538;48.884;8.696;2024-03-23T10:58:47;98412.00;;;11.21;98.94
22743;BME280;11538;48.884;8.696;2024-03-23T11:01:15;98393.84;;;11.30;100.00
22743;BME280;11538;48.884;8.696;2024-03-23T11:03:46;98392.22;;;11.87;100.00
22743;BME280;11538;48.884;8.696;2024-03-23T11:06:36;98399.47;;;12.18;90.27
22743;BME280;11538;48.884;8.696;2024-03-23T11:09:03;98411.75;;;12.68;85.82
22743;BME280;11538;48.884;8.696;2024-03-23T11:11:30;98408.72;;;12.61;81.89
22743;BME280;11538;48.884;8.696;2024-03-23T11:14:00;98398.75;;;12.83;80.60
22743;BME280;11538;48.884;8.696;2024-03-23T11:16:28;98388.19;;;13.29;86.40
22743;BME280;11538;48.884;8.696;2024-03-23T11:19:34;98378.63;;;13.62;79.01
22743;BME280;11538;48.884;8.696;2024-03-23T11:22:02;98376.72;;;14.04;72.01
22743;BME280;11538;48.884;8.696;2024-03-23T11:24:29;98387.22;;;13.94;70.72
22743;BME280;11538;48.884;8.696;2024-03-23T11:26:55;98389.09;;;14.02;72.52
22743;BME280;11538;48.884;8.696;2024-03-23T11:29:21;98385.59;;;14.35;65.68
22743;BME280;11538;48.884;8.696;2024-03-23T11:31:53;98378.69;;;15.30;64.30
22743;BME280;11538;48.884;8.696;2024-03-23T11:34:20;98398.50;;;15.89;58.34
22743;BME280;11538;48.884;8.696;2024-03-23T11:36:47;98394.94;;;16.01;54.29
22743;BME280;11538;48.884;8.696;2024-03-23T11:39:18;98415.38;;;16.32;52.95
22743;BME280;11538;48.884;8.696;2024-03-23T11:41:52;98401.78;;;15.20;51.55
22743;BME280;11538;48.884;8.696;2024-03-23T11:44:24;98380.59;;;15.67;49.39
22743;BME280;11538;48.884;8.696;2024-03-23T11:46:51;98376.81;;;16.37;50.27
22743;BME280;11538;48.884;8.696;2024-03-23T11:51:49;98353.34;;;17.13;46.64
22743;BME280;11538;48.884;8.696;2024-03-23T11:54:15;98366.69;;;17.46;45.45
22743;BME280;11538;48.884;8.696;2024-03-23T11:56:59;98363.75;;;17.55;45.94
22743;BME280;11538;48.884;8.696;2024-03-23T11:59:40;98348.47;;;17.54;46.29
22743;BME280;11538;48.884;8.696;2024-03-23T12:02:18;98341.31;;;17.69;46.52
22743;BME280;11538;48.884;8.696;2024-03-23T12:04:44;98363.66;;;17.87;44.43
22743;BME280;11538;48.884;8.696;2024-03-23T12:07:18;98364.44;;;18.23;44.35
22743;BME280;11538;48.884;8.696;2024-03-23T12:10:06;98337.94;;;18.31;43.58
22743;BME280;11538;48.884;8.696;2024-03-23T12:12:32;98337.09;;;17.91;44.36
22743;BME280;11538;48.884;8.696;2024-03-23T12:15:07;98327.16;;;17.47;45.15
22743;BME280;11538;48.884;8.696;2024-03-23T12:17:37;98327.19;;;18.03;44.01
22743;BME280;11538;48.884;8.696;2024-03-23T12:20:04;98321.56;;;17.79;44.92
22743;BME280;11538;48.884;8.696;2024-03-23T12:22:30;98324.88;;;18.05;43.99
22743;BME280;11538;48.884;8.696;2024-03-23T12:24:56;98332.34;;;17.88;44.92
22743;BME280;11538;48.884;8.696;2024-03-23T12:27:23;98335.44;;;17.87;44.17
22743;BME280;11538;48.884;8.696;2024-03-23T12:29:49;98336.06;;;18.35;42.92
22743;BME280;11538;48.884;8.696;2024-03-23T12:32:15;98336.13;;;19.05;42.10
22743;BME280;11538;48.884;8.696;2024-03-23T12:34:42;98334.03;;;18.75;42.32
22743;BME280;11538;48.884;8.696;2024-03-23T12:37:08;98327.25;;;18.69;42.13
22743;BME280;11538;48.884;8.696;2024-03-23T12:39:38;98333.81;;;19.07;41.85
22743;BME280;11538;48.884;8.696;2024-03-23T12:42:05;98316.41;;;18.76;40.32
22743;BME280;11538;48.884;8.696;2024-03-23T12:44:31;98321.97;;;19.30;39.67
22743;BME280;11538;48.884;8.696;2024-03-23T12:46:57;98317.25;;;19.04;39.76
22743;BME280;11538;48.884;8.696;2024-03-23T12:49:26;98324.91;;;19.41;38.99
22743;BME280;11538;48.884;8.696;2024-03-23T12:51:55;98328.56;;;19.79;37.26
22743;BME280;11538;48.884;8.696;2024-03-23T12:54:22;98321.63;;;19.89;37.69
22743;BME280;11538;48.884;8.696;2024-03-23T12:56:49;98316.84;;;19.55;37.61
22743;BME280;11538;48.884;8.696;2024-03-23T12:59:15;98313.56;;;19.73;37.65
22743;BME280;11538;48.884;8.696;2024-03-23T13:01:42;98309.09;;;19.34;37.92
22743;BME280;11538;48.884;8.696;2024-03-23T13:04:09;98312.88;;;19.26;38.53
22743;BME280;11538;48.884;8.696;2024-03-23T13:06:36;98302.59;;;19.77;37.02
22743;BME280;11538;48.884;8.696;2024-03-23T13:09:05;98302.31;;;20.16;35.73
22743;BME280;11538;48.884;8.696;2024-03-23T13:11:31;98303.63;;;19.65;35.89
22743;BME280;11538;48.884;8.696;2024-03-23T13:13:58;98312.28;;;17.84;39.49
22743;BME280;11538;48.884;8.696;2024-03-23T13:16:24;98329.09;;;16.22;43.54
22743;BME280;11538;48.884;8.696;2024-03-23T13:18:51;98325.97;;;14.92;50.15
22743;BME280;11538;48.884;8.696;2024-03-23T13:21:17;98363.09;;;14.04;59.75
22743;BME280;11538;48.884;8.696;2024-03-23T13:23:47;98363.00;;;13.71;61.19
22743;BME280;11538;48.884;8.696;2024-03-23T13:26:14;98386.69;;;13.01;63.64
22743;BME280;11538;48.884;8.696;2024-03-23T13:28:40;98392.06;;;11.92;67.55
22743;BME280;11538;48.884;8.696;2024-03-23T13:31:07;98400.22;;;10.94;72.81
22743;BME280;11538;48.884;8.696;2024-03-23T13:33:34;98392.78;;;10.31;77.69
22743;BME280;11538;48.884;8.696;2024-03-23T13:36:00;98389.94;;;10.36;83.70
22743;BME280;11538;48.884;8.696;2024-03-23T13:38:26;98385.63;;;11.12;77.13
22743;BME280;11538;48.884;8.696;2024-03-23T13:40:57;98376.69;;;11.61;77.99
22743;BME280;11538;48.884;8.696;2024-03-23T13:43:25;98375.94;;;11.20;87.52
22743;BME280;11538;48.884;8.696;2024-03-23T13:45:59;98380.44;;;10.93;87.62
22743;BME280;11538;48.884;8.696;2024-03-23T13:48:27;98371.31;;;10.58;89.36
22743;BME280;11538;48.884;8.696;2024-03-23T13:51:04;98378.00;;;10.37;91.22
22743;BME280;11538;48.884;8.696;2024-03-23T13:53:31;98379.34;;;10.26;92.91
22743;BME280;11538;48.884;8.696;2024-03-23T13:56:00;98384.97;;;10.30;91.81
22743;BME280;11538;48.884;8.696;2024-03-23T13:58:26;98382.91;;;10.13;91.67